sensor_id;sensor_type;location;lat;lon;timestamp;pressure;altitude;pressure_sealevel;temperature;humidity
6032;BME280;3044;43.232;27.972;2023-02-02T00:01:21;45226.16;;;-143.84;64.98
6032;BME280;3044;43.232;27.972;2023-02-02T00:03:51;45205.22;;;-143.84;64.14
6032;BME280;3044;43.232;27.972;2023-02-02T00:06:19;45231.88;;;-143.84;64.14
6032;BME280;3044;43.232;27.972;2023-02-02T00:08:47;45233.78;;;-143.84;63.51
6032;BME280;3044;43.232;27.972;2023-02-02T00:11:16;45220.44;;;-143.84;62.86
6032;BME280;3044;43.232;27.972;2023-02-02T00:13:44;45214.72;;;-143.84;63.04
6032;BME280;3044;43.232;27.972;2023-02-02T00:16:33;45235.69;;;-143.84;63.15
6032;BME280;3044;43.232;27.972;2023-02-02T00:19:04;45233.78;;;-143.84;62.90
6032;BME280;3044;43.232;27.972;2023-02-02T00:21:31;45209.03;;;-143.84;63.42
6032;BME280;3044;43.232;27.972;2023-02-02T00:23:58;45243.31;;;-143.84;63.40
6032;BME280;3044;43.232;27.972;2023-02-02T00:26:26;45239.50;;;-143.84;63.62
6032;BME280;3044;43.232;27.972;2023-02-02T00:28:53;45210.94;;;-143.84;63.52
6032;BME280;3044;43.232;27.972;2023-02-02T00:31:20;45237.59;;;-143.84;63.64
6032;BME280;3044;43.232;27.972;2023-02-02T00:33:48;45214.72;;;-143.84;63.59
6032;BME280;3044;43.232;27.972;2023-02-02T00:36:18;45229.97;;;-143.84;63.69
6032;BME280;3044;43.232;27.972;2023-02-02T00:38:46;45228.06;;;-143.84;63.77
6032;BME280;3044;43.232;27.972;2023-02-02T00:41:14;45243.31;;;-143.84;63.60
6032;BME280;3044;43.232;27.972;2023-02-02T00:43:41;45226.16;;;-143.84;63.17
6032;BME280;3044;43.232;27.972;2023-02-02T00:46:10;45245.19;;;-143.84;63.05
6032;BME280;3044;43.232;27.972;2023-02-02T00:48:38;45224.25;;;-143.84;63.40
6032;BME280;3044;43.232;27.972;2023-02-02T00:51:05;45216.63;;;-143.84;63.25
6032;BME280;3044;43.232;27.972;2023-02-02T00:53:34;45235.69;;;-143.84;63.31
6032;BME280;3044;43.232;27.972;2023-02-02T00:56:01;45201.41;;;-143.84;63.54
6032;BME280;3044;43.232;27.972;2023-02-02T00:58:28;45235.69;;;-143.84;63.93
6032;BME280;3044;43.232;27.972;2023-02-02T01:00:55;45228.06;;;-143.84;63.23
6032;BME280;3044;43.232;27.972;2023-02-02T01:03:23;45216.63;;;-143.84;63.08
6032;BME280;3044;43.232;27.972;2023-02-02T01:05:50;45247.09;;;-143.84;63.06
6032;BME280;3044;43.232;27.972;2023-02-02T01:08:17;45237.59;;;-143.84;63.17
6032;BME280;3044;43.232;27.972;2023-02-02T01:10:45;45220.44;;;-143.84;63.27
6032;BME280;3044;43.232;27.972;2023-02-02T01:13:12;45226.16;;;-143.84;62.94
6032;BME280;3044;43.232;27.972;2023-02-02T01:15:39;45243.31;;;-143.84;62.79
6032;BME280;3044;43.232;27.972;2023-02-02T01:18:06;45205.22;;;-143.84;62.57
6032;BME280;3044;43.232;27.972;2023-02-02T01:20:34;45205.22;;;-143.84;62.92
6032;BME280;3044;43.232;27.972;2023-02-02T01:23:01;45209.03;;;-143.84;62.20
6032;BME280;3044;43.232;27.972;2023-02-02T01:25:28;45254.72;;;-143.84;62.24
6032;BME280;3044;43.232;27.972;2023-02-02T01:27:58;45245.19;;;-143.84;62.09
6032;BME280;3044;43.232;27.972;2023-02-02T01:30:25;45228.06;;;-143.84;62.06
6032;BME280;3044;43.232;27.972;2023-02-02T01:32:53;45241.41;;;-143.84;61.21
6032;BME280;3044;43.232;27.972;2023-02-02T01:35:20;45254.72;;;-143.84;61.05
6032;BME280;3044;43.232;27.972;2023-02-02T01:37:47;45249.00;;;-143.84;61.06
6032;BME280;3044;43.232;27.972;2023-02-02T01:40:14;45229.97;;;-143.84;60.75
6032;BME280;3044;43.232;27.972;2023-02-02T01:42:41;45228.06;;;-143.84;60.98
6032;BME280;3044;43.232;27.972;2023-02-02T01:45:27;45228.06;;;-143.84;60.96
6032;BME280;3044;43.232;27.972;2023-02-02T01:47:57;45235.69;;;-143.84;61.32
6032;BME280;3044;43.232;27.972;2023-02-02T01:50:28;45209.03;;;-143.84;61.50
6032;BME280;3044;43.232;27.972;2023-02-02T01:52:58;45209.03;;;-143.84;61.72
6032;BME280;3044;43.232;27.972;2023-02-02T01:55:28;45228.06;;;-143.84;62.20
6032;BME280;3044;43.232;27.972;2023-02-02T01:57:59;45243.31;;;-143.84;62.17
6032;BME280;3044;43.232;27.972;2023-02-02T02:00:30;45218.53;;;-143.84;62.78
6032;BME280;3044;43.232;27.972;2023-02-02T02:03:01;45239.50;;;-143.84;62.51
6032;BME280;3044;43.232;27.972;2023-02-02T02:05:33;45239.50;;;-143.84;62.79
6032;BME280;3044;43.232;27.972;2023-02-02T02:08:06;45228.06;;;-143.84;62.67
6032;BME280;3044;43.232;27.972;2023-02-02T02:10:36;45220.44;;;-143.84;62.66
6032;BME280;3044;43.232;27.972;2023-02-02T02:13:03;45216.63;;;-143.84;62.55
6032;BME280;3044;43.232;27.972;2023-02-02T02:15:39;45243.31;;;-143.84;63.05
6032;BME280;3044;43.232;27.972;2023-02-02T02:18:37;45224.25;;;-143.84;63.46
6032;BME280;3044;43.232;27.972;2023-02-02T02:21:31;45247.09;;;-143.84;63.66
6032;BME280;3044;43.232;27.972;2023-02-02T02:28:02;45229.97;;;-143.84;64.25
6032;BME280;3044;43.232;27.972;2023-02-02T02:31:07;45220.44;;;-143.84;64.36
6032;BME280;3044;43.232;27.972;2023-02-02T02:33:45;45250.91;;;-143.84;64.55
6032;BME280;3044;43.232;27.972;2023-02-02T02:36:18;45209.03;;;-143.84;64.57
6032;BME280;3044;43.232;27.972;2023-02-02T02:38:50;45220.44;;;-143.84;64.82
6032;BME280;3044;43.232;27.972;2023-02-02T02:41:20;45224.25;;;-143.84;64.43
6032;BME280;3044;43.232;27.972;2023-02-02T02:43:51;45224.25;;;-143.84;64.98
6032;BME280;3044;43.232;27.972;2023-02-02T02:46:22;45249.00;;;-143.84;65.06
6032;BME280;3044;43.232;27.972;2023-02-02T02:48:51;45218.53;;;-143.84;64.69
6032;BME280;3044;43.232;27.972;2023-02-02T02:51:41;45218.53;;;-143.84;64.87
6032;BME280;3044;43.232;27.972;2023-02-02T02:54:09;45235.69;;;-143.84;64.84
6032;BME280;3044;43.232;27.972;2023-02-02T02:56:45;45245.19;;;-143.84;65.15
6032;BME280;3044;43.232;27.972;2023-02-02T02:59:25;45235.69;;;-143.84;65.24
6032;BME280;3044;43.232;27.972;2023-02-02T03:02:03;45247.09;;;-143.84;65.33
6032;BME280;3044;43.232;27.972;2023-02-02T03:04:42;45210.94;;;-143.84;65.39
6032;BME280;3044;43.232;27.972;2023-02-02T03:07:20;45252.81;;;-143.84;66.01
6032;BME280;3044;43.232;27.972;2023-02-02T03:09:50;45231.88;;;-143.84;65.90
6032;BME280;3044;43.232;27.972;2023-02-02T03:12:18;45243.31;;;-143.84;65.86
6032;BME280;3044;43.232;27.972;2023-02-02T03:14:45;45241.41;;;-143.84;65.89
6032;BME280;3044;43.232;27.972;2023-02-02T03:17:13;45250.91;;;-143.84;65.84
6032;BME280;3044;43.232;27.972;2023-02-02T03:19:41;45243.31;;;-143.84;65.67
6032;BME280;3044;43.232;27.972;2023-02-02T03:22:08;45229.97;;;-143.84;65.90
6032;BME280;3044;43.232;27.972;2023-02-02T03:24:35;45214.72;;;-143.84;65.62
6032;BME280;3044;43.232;27.972;2023-02-02T03:27:02;45214.72;;;-143.84;65.66
6032;BME280;3044;43.232;27.972;2023-02-02T03:29:30;45233.78;;;-143.84;65.79
6032;BME280;3044;43.232;27.972;2023-02-02T03:31:57;45218.53;;;-143.84;65.74
6032;BME280;3044;43.232;27.972;2023-02-02T03:34:24;45262.34;;;-143.84;65.23
6032;BME280;3044;43.232;27.972;2023-02-02T03:36:52;45218.53;;;-143.84;65.22
6032;BME280;3044;43.232;27.972;2023-02-02T03:39:19;45260.44;;;-143.84;65.43
6032;BME280;3044;43.232;27.972;2023-02-02T03:41:47;45247.09;;;-143.84;65.36
6032;BME280;3044;43.232;27.972;2023-02-02T03:44:14;45218.53;;;-143.84;64.96
6032;BME280;3044;43.232;27.972;2023-02-02T03:46:41;45239.50;;;-143.84;64.96
6032;BME280;3044;43.232;27.972;2023-02-02T03:49:08;45226.16;;;-143.84;64.88
6032;BME280;3044;43.232;27.972;2023-02-02T03:51:35;45243.31;;;-143.84;65.04
6032;BME280;3044;43.232;27.972;2023-02-02T03:54:03;45241.41;;;-143.84;64.96
6032;BME280;3044;43.232;27.972;2023-02-02T03:56:30;45231.88;;;-143.84;65.02
6032;BME280;3044;43.232;27.972;2023-02-02T03:58:58;45231.88;;;-143.84;65.11
6032;BME280;3044;43.232;27.972;2023-02-02T04:01:26;45239.50;;;-143.84;65.11
6032;BME280;3044;43.232;27.972;2023-02-02T04:03:54;45250.91;;;-143.84;65.41
6032;BME280;3044;43.232;27.972;2023-02-02T04:06:22;45239.50;;;-143.84;65.65
6032;BME280;3044;43.232;27.972;2023-02-02T04:08:50;45220.44;;;-143.84;65.84
6032;BME280;3044;43.232;27.972;2023-02-02T04:11:18;45210.94;;;-143.84;66.36
6032;BME280;3044;43.232;27.972;2023-02-02T04:13:45;45237.59;;;-143.84;66.37
6032;BME280;3044;43.232;27.972;2023-02-02T04:16:13;45201.41;;;-143.84;66.61
6032;BME280;3044;43.232;27.972;2023-02-02T04:18:40;45222.34;;;-143.84;66.85
6032;BME280;3044;43.232;27.972;2023-02-02T04:21:08;45226.16;;;-143.84;66.81
6032;BME280;3044;43.232;27.972;2023-02-02T04:23:35;45239.50;;;-143.84;67.55
6032;BME280;3044;43.232;27.972;2023-02-02T04:26:03;45212.84;;;-143.84;67.35
6032;BME280;3044;43.232;27.972;2023-02-02T04:28:32;45218.53;;;-143.84;67.66
6032;BME280;3044;43.232;27.972;2023-02-02T04:30:59;45250.91;;;-143.84;68.33
6032;BME280;3044;43.232;27.972;2023-02-02T04:33:27;45220.44;;;-143.84;68.47
6032;BME280;3044;43.232;27.972;2023-02-02T04:35:54;45264.25;;;-143.84;68.65
6032;BME280;3044;43.232;27.972;2023-02-02T04:38:21;45226.16;;;-143.84;68.63
6032;BME280;3044;43.232;27.972;2023-02-02T04:40:48;45201.41;;;-143.84;69.29
6032;BME280;3044;43.232;27.972;2023-02-02T04:43:15;45216.63;;;-143.84;69.82
6032;BME280;3044;43.232;27.972;2023-02-02T04:45:44;45275.66;;;-143.84;70.10
6032;BME280;3044;43.232;27.972;2023-02-02T04:48:11;45249.00;;;-143.84;70.42
6032;BME280;3044;43.232;27.972;2023-02-02T04:50:38;45209.03;;;-143.84;70.48
6032;BME280;3044;43.232;27.972;2023-02-02T04:53:05;45254.72;;;-143.84;70.94
6032;BME280;3044;43.232;27.972;2023-02-02T04:55:35;45209.03;;;-143.84;71.06
6032;BME280;3044;43.232;27.972;2023-02-02T04:58:03;45216.63;;;-143.84;71.48
6032;BME280;3044;43.232;27.972;2023-02-02T05:00:31;45212.84;;;-143.84;71.55
6032;BME280;3044;43.232;27.972;2023-02-02T05:02:59;45220.44;;;-143.84;71.95
6032;BME280;3044;43.232;27.972;2023-02-02T05:05:27;45239.50;;;-143.84;71.84
6032;BME280;3044;43.232;27.972;2023-02-02T05:07:54;45235.69;;;-143.84;71.75
6032;BME280;3044;43.232;27.972;2023-02-02T05:10:21;45233.78;;;-143.84;71.82
6032;BME280;3044;43.232;27.972;2023-02-02T05:12:50;45220.44;;;-143.84;71.74
6032;BME280;3044;43.232;27.972;2023-02-02T05:15:17;45222.34;;;-143.84;71.90
6032;BME280;3044;43.232;27.972;2023-02-02T05:17:46;45228.06;;;-143.84;71.82
6032;BME280;3044;43.232;27.972;2023-02-02T05:20:14;45233.78;;;-143.84;72.01
6032;BME280;3044;43.232;27.972;2023-02-02T05:22:42;45222.34;;;-143.84;71.57
6032;BME280;3044;43.232;27.972;2023-02-02T05:25:09;45226.16;;;-143.84;71.98
6032;BME280;3044;43.232;27.972;2023-02-02T05:27:36;45239.50;;;-143.84;71.68
6032;BME280;3044;43.232;27.972;2023-02-02T05:30:04;45249.00;;;-143.84;71.88
6032;BME280;3044;43.232;27.972;2023-02-02T05:32:31;45262.34;;;-143.84;71.21
6032;BME280;3044;43.232;27.972;2023-02-02T05:34:59;45249.00;;;-143.84;71.24
6032;BME280;3044;43.232;27.972;2023-02-02T05:37:27;45226.16;;;-143.84;71.16
6032;BME280;3044;43.232;27.972;2023-02-02T05:39:54;45249.00;;;-143.84;71.02
6032;BME280;3044;43.232;27.972;2023-02-02T05:42:21;45249.00;;;-143.84;71.05
6032;BME280;3044;43.232;27.972;2023-02-02T05:44:49;45245.19;;;-143.84;70.99
6032;BME280;3044;43.232;27.972;2023-02-02T05:47:16;45237.59;;;-143.84;71.44
6032;BME280;3044;43.232;27.972;2023-02-02T05:49:43;45212.84;;;-143.84;70.95
6032;BME280;3044;43.232;27.972;2023-02-02T05:52:14;45226.16;;;-143.84;71.05
6032;BME280;3044;43.232;27.972;2023-02-02T05:54:44;45207.13;;;-143.84;71.12
6032;BME280;3044;43.232;27.972;2023-02-02T05:57:11;45224.25;;;-143.84;71.03
6032;BME280;3044;43.232;27.972;2023-02-02T05:59:38;45220.44;;;-143.84;71.08
6032;BME280;3044;43.232;27.972;2023-02-02T06:02:05;45228.06;;;-143.84;70.98
6032;BME280;3044;43.232;27.972;2023-02-02T06:04:32;45218.53;;;-143.84;70.85
6032;BME280;3044;43.232;27.972;2023-02-02T06:06:59;45239.50;;;-143.84;71.08
6032;BME280;3044;43.232;27.972;2023-02-02T06:09:27;45233.78;;;-143.84;71.24
6032;BME280;3044;43.232;27.972;2023-02-02T06:11:55;45237.59;;;-143.84;70.93
6032;BME280;3044;43.232;27.972;2023-02-02T06:14:22;45231.88;;;-143.84;70.72
6032;BME280;3044;43.232;27.972;2023-02-02T06:16:49;45249.00;;;-143.84;70.64
6032;BME280;3044;43.232;27.972;2023-02-02T06:19:16;45243.31;;;-143.84;71.20
6032;BME280;3044;43.232;27.972;2023-02-02T06:21:44;45224.25;;;-143.84;70.99
6032;BME280;3044;43.232;27.972;2023-02-02T06:24:11;45201.41;;;-143.84;71.26
6032;BME280;3044;43.232;27.972;2023-02-02T06:26:38;45210.94;;;-143.84;71.04
6032;BME280;3044;43.232;27.972;2023-02-02T06:29:09;45220.44;;;-143.84;71.05
6032;BME280;3044;43.232;27.972;2023-02-02T06:31:37;45249.00;;;-143.84;70.97
6032;BME280;3044;43.232;27.972;2023-02-02T06:34:05;45212.84;;;-143.84;70.26
6032;BME280;3044;43.232;27.972;2023-02-02T06:36:33;45222.34;;;-143.84;70.24
6032;BME280;3044;43.232;27.972;2023-02-02T06:39:00;45231.88;;;-143.84;69.87
6032;BME280;3044;43.232;27.972;2023-02-02T06:41:29;45212.84;;;-143.84;68.66
6032;BME280;3044;43.232;27.972;2023-02-02T06:43:57;45216.63;;;-143.84;67.61
6032;BME280;3044;43.232;27.972;2023-02-02T06:46:25;45229.97;;;-143.84;66.57
6032;BME280;3044;43.232;27.972;2023-02-02T06:48:53;45229.97;;;-143.84;66.24
6032;BME280;3044;43.232;27.972;2023-02-02T06:51:20;45226.16;;;-143.84;66.22
6032;BME280;3044;43.232;27.972;2023-02-02T06:53:47;45239.50;;;-143.84;65.19
6032;BME280;3044;43.232;27.972;2023-02-02T06:56:15;45210.94;;;-143.84;65.03
6032;BME280;3044;43.232;27.972;2023-02-02T06:58:43;45228.06;;;-143.84;65.46
6032;BME280;3044;43.232;27.972;2023-02-02T07:01:11;45210.94;;;-143.84;65.62
6032;BME280;3044;43.232;27.972;2023-02-02T07:03:40;45218.53;;;-143.84;65.04
6032;BME280;3044;43.232;27.972;2023-02-02T07:06:12;45224.25;;;-143.84;64.92
6032;BME280;3044;43.232;27.972;2023-02-02T07:08:40;45203.31;;;-143.84;64.65
6032;BME280;3044;43.232;27.972;2023-02-02T07:11:08;45180.47;;;-143.84;64.72
6032;BME280;3044;43.232;27.972;2023-02-02T07:13:35;45222.34;;;-143.84;64.33
6032;BME280;3044;43.232;27.972;2023-02-02T07:16:03;45249.00;;;-143.84;64.07
6032;BME280;3044;43.232;27.972;2023-02-02T07:18:30;45224.25;;;-143.84;64.39
6032;BME280;3044;43.232;27.972;2023-02-02T07:21:00;45228.06;;;-143.84;64.74
6032;BME280;3044;43.232;27.972;2023-02-02T07:23:27;45207.13;;;-143.84;63.74
6032;BME280;3044;43.232;27.972;2023-02-02T07:26:02;45222.34;;;-143.84;63.72
6032;BME280;3044;43.232;27.972;2023-02-02T07:28:30;45233.78;;;-143.84;63.94
6032;BME280;3044;43.232;27.972;2023-02-02T07:30:57;45220.44;;;-143.84;64.12
6032;BME280;3044;43.232;27.972;2023-02-02T07:33:24;45203.31;;;-143.84;63.70
6032;BME280;3044;43.232;27.972;2023-02-02T07:35:51;45167.13;;;-143.84;62.36
6032;BME280;3044;43.232;27.972;2023-02-02T07:38:20;45189.97;;;-143.84;63.02
6032;BME280;3044;43.232;27.972;2023-02-02T07:40:47;45201.41;;;-143.84;61.29
6032;BME280;3044;43.232;27.972;2023-02-02T07:43:14;45197.59;;;-143.84;60.07
6032;BME280;3044;43.232;27.972;2023-02-02T07:45:43;45193.78;;;-143.84;59.44
6032;BME280;3044;43.232;27.972;2023-02-02T07:48:11;45216.63;;;-143.84;58.57
6032;BME280;3044;43.232;27.972;2023-02-02T07:50:38;45203.31;;;-143.84;58.77
6032;BME280;3044;43.232;27.972;2023-02-02T07:53:05;45189.97;;;-143.84;56.65
6032;BME280;3044;43.232;27.972;2023-02-02T07:55:33;45218.53;;;-143.84;55.63
6032;BME280;3044;43.232;27.972;2023-02-02T07:58:00;45197.59;;;-143.84;56.25
6032;BME280;3044;43.232;27.972;2023-02-02T08:00:27;45186.16;;;-143.84;55.40
6032;BME280;3044;43.232;27.972;2023-02-02T08:02:55;45214.72;;;-143.84;53.56
6032;BME280;3044;43.232;27.972;2023-02-02T08:05:22;45197.59;;;-143.84;52.37
6032;BME280;3044;43.232;27.972;2023-02-02T08:07:49;45178.56;;;-143.84;51.11
6032;BME280;3044;43.232;27.972;2023-02-02T08:10:16;45189.97;;;-143.84;51.21
6032;BME280;3044;43.232;27.972;2023-02-02T08:12:45;45170.94;;;-143.84;48.85
6032;BME280;3044;43.232;27.972;2023-02-02T08:15:12;45180.47;;;-143.84;48.33
6032;BME280;3044;43.232;27.972;2023-02-02T08:17:39;45167.13;;;-143.84;48.06
6032;BME280;3044;43.232;27.972;2023-02-02T08:20:11;45191.88;;;-143.84;48.35
6032;BME280;3044;43.232;27.972;2023-02-02T08:22:40;45197.59;;;-143.84;48.59
6032;BME280;3044;43.232;27.972;2023-02-02T08:25:08;45157.59;;;-143.84;48.11
6032;BME280;3044;43.232;27.972;2023-02-02T08:27:35;45178.56;;;-143.84;48.28
6032;BME280;3044;43.232;27.972;2023-02-02T08:30:04;45169.03;;;-143.84;48.78
6032;BME280;3044;43.232;27.972;2023-02-02T08:32:31;45188.06;;;-143.84;47.18
6032;BME280;3044;43.232;27.972;2023-02-02T08:34:58;45186.16;;;-143.84;46.37
6032;BME280;3044;43.232;27.972;2023-02-02T08:37:25;45178.56;;;-143.84;46.19
6032;BME280;3044;43.232;27.972;2023-02-02T08:39:52;45197.59;;;-143.84;46.83
6032;BME280;3044;43.232;27.972;2023-02-02T08:42:19;45197.59;;;-143.84;46.53
6032;BME280;3044;43.232;27.972;2023-02-02T08:44:47;45178.56;;;-143.84;46.72
6032;BME280;3044;43.232;27.972;2023-02-02T08:47:15;45176.66;;;-143.84;47.39
6032;BME280;3044;43.232;27.972;2023-02-02T08:49:42;45155.69;;;-143.84;47.34
6032;BME280;3044;43.232;27.972;2023-02-02T08:52:09;45186.16;;;-143.84;47.17
6032;BME280;3044;43.232;27.972;2023-02-02T08:54:36;45188.06;;;-143.84;46.78
6032;BME280;3044;43.232;27.972;2023-02-02T08:57:04;45157.59;;;-143.84;46.87
6032;BME280;3044;43.232;27.972;2023-02-02T08:59:31;45169.03;;;-143.84;47.11
6032;BME280;3044;43.232;27.972;2023-02-02T09:01:58;45155.69;;;-143.84;46.33
6032;BME280;3044;43.232;27.972;2023-02-02T09:04:26;45144.28;;;-143.84;44.81
6032;BME280;3044;43.232;27.972;2023-02-02T09:06:53;45184.25;;;-143.84;44.32
6032;BME280;3044;43.232;27.972;2023-02-02T09:09:21;45165.22;;;-143.84;44.26
6032;BME280;3044;43.232;27.972;2023-02-02T09:11:48;45180.47;;;-143.84;44.46
6032;BME280;3044;43.232;27.972;2023-02-02T09:14:15;45163.31;;;-143.84;44.36
6032;BME280;3044;43.232;27.972;2023-02-02T09:16:42;45157.59;;;-143.84;43.71
6032;BME280;3044;43.232;27.972;2023-02-02T09:19:10;45178.56;;;-143.84;43.62
6032;BME280;3044;43.232;27.972;2023-02-02T09:21:39;45163.31;;;-143.84;43.02
6032;BME280;3044;43.232;27.972;2023-02-02T09:24:07;45174.75;;;-143.84;43.80
6032;BME280;3044;43.232;27.972;2023-02-02T09:26:34;45155.69;;;-143.84;43.68
6032;BME280;3044;43.232;27.972;2023-02-02T09:29:05;45146.19;;;-143.84;42.96
6032;BME280;3044;43.232;27.972;2023-02-02T09:31:35;45144.28;;;-143.84;43.38
6032;BME280;3044;43.232;27.972;2023-02-02T09:34:03;45142.38;;;-143.84;43.23
6032;BME280;3044;43.232;27.972;2023-02-02T09:36:31;45150.00;;;-143.84;43.05
6032;BME280;3044;43.232;27.972;2023-02-02T09:39:00;45172.84;;;-143.84;43.04
6032;BME280;3044;43.232;27.972;2023-02-02T09:44:39;45136.66;;;-143.84;43.10
6032;BME280;3044;43.232;27.972;2023-02-02T09:47:15;45155.69;;;-143.84;43.02
6032;BME280;3044;43.232;27.972;2023-02-02T09:49:51;45153.81;;;-143.84;42.90
6032;BME280;3044;43.232;27.972;2023-02-02T09:52:25;45180.47;;;-143.84;43.39
6032;BME280;3044;43.232;27.972;2023-02-02T09:54:57;45123.34;;;-143.84;43.34
6032;BME280;3044;43.232;27.972;2023-02-02T09:57:30;45150.00;;;-143.84;43.08
6032;BME280;3044;43.232;27.972;2023-02-02T09:59:59;45159.50;;;-143.84;41.63
6032;BME280;3044;43.232;27.972;2023-02-02T10:02:29;45163.31;;;-143.84;42.37
6032;BME280;3044;43.232;27.972;2023-02-02T10:05:01;45163.31;;;-143.84;42.76
6032;BME280;3044;43.232;27.972;2023-02-02T10:07:33;45167.13;;;-143.84;42.37
6032;BME280;3044;43.232;27.972;2023-02-02T10:10:10;45155.69;;;-143.84;42.67
6032;BME280;3044;43.232;27.972;2023-02-02T10:12:43;45167.13;;;-143.84;41.40
6032;BME280;3044;43.232;27.972;2023-02-02T10:15:18;45144.28;;;-143.84;40.55
6032;BME280;3044;43.232;27.972;2023-02-02T10:17:54;45148.09;;;-143.84;41.05
6032;BME280;3044;43.232;27.972;2023-02-02T10:20:32;45189.97;;;-143.84;40.51
6032;BME280;3044;43.232;27.972;2023-02-02T10:23:08;45161.41;;;-143.84;41.45
6032;BME280;3044;43.232;27.972;2023-02-02T10:25:43;45148.09;;;-143.84;41.08
6032;BME280;3044;43.232;27.972;2023-02-02T10:28:19;45155.69;;;-143.84;40.89
6032;BME280;3044;43.232;27.972;2023-02-02T10:30:54;45159.50;;;-143.84;41.77
6032;BME280;3044;43.232;27.972;2023-02-02T10:33:34;45199.50;;;-143.84;42.32
6032;BME280;3044;43.232;27.972;2023-02-02T10:36:10;45150.00;;;-143.84;42.61
6032;BME280;3044;43.232;27.972;2023-02-02T10:38:48;45157.59;;;-143.84;42.76
6032;BME280;3044;43.232;27.972;2023-02-02T10:41:26;45161.41;;;-143.84;43.10
6032;BME280;3044;43.232;27.972;2023-02-02T10:44:19;45153.81;;;-143.84;43.53
6032;BME280;3044;43.232;27.972;2023-02-02T10:46:52;45169.03;;;-143.84;42.56
6032;BME280;3044;43.232;27.972;2023-02-02T10:49:27;45151.91;;;-143.84;43.18
6032;BME280;3044;43.232;27.972;2023-02-02T10:52:00;45167.13;;;-143.84;43.51
6032;BME280;3044;43.232;27.972;2023-02-02T10:54:42;45155.69;;;-143.84;43.64
6032;BME280;3044;43.232;27.972;2023-02-02T10:57:17;45174.75;;;-143.84;43.33
6032;BME280;3044;43.232;27.972;2023-02-02T10:59:52;45148.09;;;-143.84;43.94
6032;BME280;3044;43.232;27.972;2023-02-02T11:02:24;45167.13;;;-143.84;44.26
6032;BME280;3044;43.232;27.972;2023-02-02T11:04:51;45159.50;;;-143.84;44.30
6032;BME280;3044;43.232;27.972;2023-02-02T11:07:35;45155.69;;;-143.84;45.01
6032;BME280;3044;43.232;27.972;2023-02-02T11:10:03;45184.25;;;-143.84;44.67
6032;BME280;3044;43.232;27.972;2023-02-02T11:12:33;45176.66;;;-143.84;44.33
6032;BME280;3044;43.232;27.972;2023-02-02T11:15:03;45169.03;;;-143.84;44.26
6032;BME280;3044;43.232;27.972;2023-02-02T11:17:31;45159.50;;;-143.84;44.25
6032;BME280;3044;43.232;27.972;2023-02-02T11:19:59;45205.22;;;-143.84;44.81
6032;BME280;3044;43.232;27.972;2023-02-02T11:22:30;45159.50;;;-143.84;44.96
6032;BME280;3044;43.232;27.972;2023-02-02T11:25:00;45167.13;;;-143.84;43.27
6032;BME280;3044;43.232;27.972;2023-02-02T11:27:32;45159.50;;;-143.84;43.90
6032;BME280;3044;43.232;27.972;2023-02-02T11:30:19;45170.94;;;-143.84;43.73
6032;BME280;3044;43.232;27.972;2023-02-02T11:32:47;45151.91;;;-143.84;42.80
6032;BME280;3044;43.232;27.972;2023-02-02T11:35:20;45172.84;;;-143.84;43.30
6032;BME280;3044;43.232;27.972;2023-02-02T11:37:56;45186.16;;;-143.84;43.33
6032;BME280;3044;43.232;27.972;2023-02-02T11:40:32;45153.81;;;-143.84;43.45
6032;BME280;3044;43.232;27.972;2023-02-02T11:43:04;45151.91;;;-143.84;43.81
6032;BME280;3044;43.232;27.972;2023-02-02T11:45:35;45163.31;;;-143.84;43.55
6032;BME280;3044;43.232;27.972;2023-02-02T11:48:06;45150.00;;;-143.84;44.55
6032;BME280;3044;43.232;27.972;2023-02-02T11:50:34;45163.31;;;-143.84;44.20
6032;BME280;3044;43.232;27.972;2023-02-02T11:53:02;45169.03;;;-143.84;44.16
6032;BME280;3044;43.232;27.972;2023-02-02T11:55:30;45170.94;;;-143.84;44.07
6032;BME280;3044;43.232;27.972;2023-02-02T11:58:19;45172.84;;;-143.84;44.98
6032;BME280;3044;43.232;27.972;2023-02-02T12:00:51;45169.03;;;-143.84;45.46
6032;BME280;3044;43.232;27.972;2023-02-02T12:03:26;45178.56;;;-143.84;45.38
6032;BME280;3044;43.232;27.972;2023-02-02T12:05:53;45151.91;;;-143.84;45.37
6032;BME280;3044;43.232;27.972;2023-02-02T12:08:21;45167.13;;;-143.84;44.35
6032;BME280;3044;43.232;27.972;2023-02-02T12:10:53;45176.66;;;-143.84;44.70
6032;BME280;3044;43.232;27.972;2023-02-02T12:13:50;45174.75;;;-143.84;43.91
6032;BME280;3044;43.232;27.972;2023-02-02T12:16:50;45148.09;;;-143.84;43.89
6032;BME280;3044;43.232;27.972;2023-02-02T12:19:32;45169.03;;;-143.84;43.92
6032;BME280;3044;43.232;27.972;2023-02-02T12:22:11;45153.81;;;-143.84;44.18
6032;BME280;3044;43.232;27.972;2023-02-02T12:24:50;45140.47;;;-143.84;44.16
6032;BME280;3044;43.232;27.972;2023-02-02T12:27:29;45157.59;;;-143.84;43.59
6032;BME280;3044;43.232;27.972;2023-02-02T12:30:23;45136.66;;;-143.84;43.42
6032;BME280;3044;43.232;27.972;2023-02-02T12:33:03;45142.38;;;-143.84;43.12
6032;BME280;3044;43.232;27.972;2023-02-02T12:35:50;45155.69;;;-143.84;43.42
6032;BME280;3044;43.232;27.972;2023-02-02T12:38:27;45167.13;;;-143.84;43.28
6032;BME280;3044;43.232;27.972;2023-02-02T12:41:10;45142.38;;;-143.84;43.76
6032;BME280;3044;43.232;27.972;2023-02-02T12:43:43;45180.47;;;-143.84;43.09
6032;BME280;3044;43.232;27.972;2023-02-02T12:46:34;45151.91;;;-143.84;43.40
6032;BME280;3044;43.232;27.972;2023-02-02T12:49:30;45150.00;;;-143.84;43.58
6032;BME280;3044;43.232;27.972;2023-02-02T12:52:15;45174.75;;;-143.84;44.13
6032;BME280;3044;43.232;27.972;2023-02-02T12:55:06;45161.41;;;-143.84;44.46
6032;BME280;3044;43.232;27.972;2023-02-02T12:57:47;45169.03;;;-143.84;44.30
6032;BME280;3044;43.232;27.972;2023-02-02T13:03:20;45148.09;;;-143.84;44.59
6032;BME280;3044;43.232;27.972;2023-02-02T13:06:00;45157.59;;;-143.84;44.65
6032;BME280;3044;43.232;27.972;2023-02-02T13:08:32;45146.19;;;-143.84;44.75
6032;BME280;3044;43.232;27.972;2023-02-02T13:11:05;45161.41;;;-143.84;44.58
6032;BME280;3044;43.232;27.972;2023-02-02T13:13:55;45180.47;;;-143.84;44.45
6032;BME280;3044;43.232;27.972;2023-02-02T13:16:25;45176.66;;;-143.84;44.20
6032;BME280;3044;43.232;27.972;2023-02-02T13:18:57;45165.22;;;-143.84;44.54